Time;durP1;ratioP1;P1;durP2;ratioP2;P2;SDS_P1;SDS_P2;PMS_P1;PMS_P2;Temp;Humidity;BMP_temperature;BMP_pressure;BME280_temperature;BME280_humidity;BME280_pressure;Samples;Min_cycle;Max_cycle;Signal;HPM_P1;HPM_P2
2023/07/15 00:00:53;;;;;;;1.10;1.00;;;;;;;24.28;43.93;99767.81;4517172;28;20026;-65
2023/07/15 00:03:05;;;;;;;1.00;0.90;;;;;;;24.23;44.33;99762.47;4518694;28;20902;-64
2023/07/15 00:05:27;;;;;;;1.17;0.95;;;;;;;24.26;44.13;99767.41;4517866;28;20041;-64
2023/07/15 00:07:37;;;;;;;0.80;0.80;;;;;;;24.25;44.17;99753.41;4518213;28;20060;-64
2023/07/15 00:09:47;;;;;;;1.33;0.90;;;;;;;24.23;44.09;99756.69;4518443;28;20038;-64
2023/07/15 00:11:58;;;;;;;0.85;0.80;;;;;;;24.23;43.86;99748.03;4517651;28;20052;-64
2023/07/15 00:14:23;;;;;;;1.60;0.88;;;;;;;24.25;43.81;99750.50;4516978;28;20043;-64
2023/07/15 00:16:34;;;;;;;0.77;0.77;;;;;;;24.24;44.05;99752.59;4518307;28;20073;-64
2023/07/15 00:18:45;;;;;;;0.90;0.80;;;;;;;24.20;44.28;99739.38;4516449;28;20032;-64
2023/07/15 00:20:55;;;;;;;1.20;0.98;;;;;;;24.25;44.11;99750.50;4518047;28;20033;-64
2023/07/15 00:23:25;;;;;;;1.00;0.90;;;;;;;24.26;44.70;99750.09;4516698;28;20033;-64
2023/07/15 00:25:35;;;;;;;1.00;0.88;;;;;;;24.24;44.55;99738.19;4516430;28;20061;-64
2023/07/15 00:27:46;;;;;;;1.55;0.85;;;;;;;24.26;44.38;99741.44;4517293;28;20502;-64
2023/07/15 00:29:57;;;;;;;0.95;0.85;;;;;;;24.26;44.38;99740.66;4515897;28;20052;-64
2023/07/15 00:32:13;;;;;;;1.05;0.98;;;;;;;24.19;44.28;99729.94;4515743;28;20033;-64
2023/07/15 00:34:24;;;;;;;0.80;0.80;;;;;;;24.24;43.93;99732.41;4516096;28;20042;-64
2023/07/15 00:36:35;;;;;;;0.80;0.80;;;;;;;24.24;44.33;99732.41;4516837;28;20042;-64
2023/07/15 00:38:45;;;;;;;0.90;0.75;;;;;;;24.26;44.16;99738.56;4517393;28;20026;-64
2023/07/15 00:40:56;;;;;;;1.05;0.80;;;;;;;24.19;44.36;99727.06;4505065;28;20067;-64
2023/07/15 00:43:44;;;;;;;1.23;1.00;;;;;;;24.26;44.07;99729.09;4516614;28;20560;-64
2023/07/15 00:46:35;;;;;;;1.00;0.90;;;;;;;24.26;44.01;99729.91;4516832;28;20045;-64
2023/07/15 00:48:50;;;;;;;1.13;0.90;;;;;;;24.24;44.18;99731.56;4495977;28;20057;-64
2023/07/15 00:51:02;;;;;;;1.10;1.00;;;;;;;24.21;44.21;99723.75;4516868;28;20088;-64
2023/07/15 00:53:14;;;;;;;1.15;0.90;;;;;;;24.21;43.81;99721.69;4515652;28;20080;-64
2023/07/15 00:55:24;;;;;;;1.02;0.90;;;;;;;24.22;44.24;99714.69;4517181;28;20048;-64
2023/07/15 00:57:35;;;;;;;1.00;0.90;;;;;;;24.22;43.72;99711.81;4515426;28;20037;-64
2023/07/15 00:59:48;;;;;;;0.80;0.80;;;;;;;24.23;44.01;99713.44;4517368;28;20643;-64
2023/07/15 01:01:59;;;;;;;1.23;0.80;;;;;;;24.19;43.76;99709.75;4521433;28;20048;-64
2023/07/15 01:04:09;;;;;;;0.98;0.90;;;;;;;24.25;43.51;99715.91;4519277;28;20095;-64
2023/07/15 01:06:21;;;;;;;0.80;0.80;;;;;;;24.23;43.70;99707.66;4520767;28;20036;-64
2023/07/15 01:08:31;;;;;;;1.00;0.90;;;;;;;24.22;43.80;99706.03;4520550;28;20041;-64
2023/07/15 01:10:42;;;;;;;1.20;0.85;;;;;;;24.23;43.54;99701.09;4520323;28;20555;-64
2023/07/15 01:12:53;;;;;;;1.45;0.80;;;;;;;24.21;43.97;99704.41;4522411;28;20041;-64
2023/07/15 01:15:04;;;;;;;1.10;1.00;;;;;;;24.16;43.67;99690.38;4519938;28;20029;-64
2023/07/15 01:17:14;;;;;;;1.20;0.90;;;;;;;24.23;43.52;99696.13;4521393;28;20602;-64
2023/07/15 01:19:24;;;;;;;0.77;0.77;;;;;;;24.18;43.60;99699.44;4520081;28;20057;-64
2023/07/15 01:21:36;;;;;;;1.02;0.90;;;;;;;24.21;43.44;99698.63;4521673;28;20041;-64
2023/07/15 01:23:46;;;;;;;1.65;0.80;;;;;;;24.23;43.21;99703.97;4521099;28;20037;-64
2023/07/15 01:25:56;;;;;;;1.15;0.90;;;;;;;24.22;43.44;99696.56;4520358;28;20026;-64
2023/07/15 01:28:07;;;;;;;0.88;0.88;;;;;;;24.18;43.26;99687.09;4518078;28;20049;-64
2023/07/15 01:30:17;;;;;;;1.17;1.00;;;;;;;24.18;42.70;99687.91;4518093;28;20041;-64
2023/07/15 01:32:28;;;;;;;0.70;0.70;;;;;;;24.19;42.66;99689.56;4520231;28;20033;-64
2023/07/15 01:34:38;;;;;;;1.00;0.90;;;;;;;24.19;43.25;99685.84;4509305;28;20025;-64
2023/07/15 01:36:49;;;;;;;0.70;0.70;;;;;;;24.18;43.08;99685.00;4519405;28;20029;-64
2023/07/15 01:38:59;;;;;;;1.00;0.73;;;;;;;24.16;42.58;99687.50;4516171;28;20080;-64
2023/07/15 01:41:10;;;;;;;1.00;0.90;;;;;;;24.20;43.33;99688.31;4518559;28;20683;-64
2023/07/15 01:43:20;;;;;;;1.63;0.70;;;;;;;24.16;41.95;99673.09;4520178;28;20142;-64
2023/07/15 01:45:31;;;;;;;1.10;1.00;;;;;;;24.21;42.13;99692.03;4519037;28;20128;-64
2023/07/15 01:47:42;;;;;;;1.17;0.90;;;;;;;24.19;42.58;99680.06;4520744;28;20583;-64
2023/07/15 01:49:53;;;;;;;0.82;0.80;;;;;;;24.17;42.18;99685.44;4518530;28;20033;-64
2023/07/15 01:52:06;;;;;;;0.95;0.80;;;;;;;24.19;42.25;99685.84;4518564;28;20040;-64
2023/07/15 01:54:16;;;;;;;0.80;0.80;;;;;;;24.19;42.39;99686.69;4519370;28;20815;-64
2023/07/15 01:56:27;;;;;;;0.85;0.70;;;;;;;24.13;42.51;99673.09;4518421;28;20037;-64
2023/07/15 01:58:38;;;;;;;1.17;1.00;;;;;;;24.20;42.83;99690.38;4517375;28;20040;-64
2023/07/15 02:00:48;;;;;;;0.80;0.80;;;;;;;24.19;42.78;99683.78;4518427;28;20397;-64
2023/07/15 02:02:59;;;;;;;0.93;0.85;;;;;;;24.14;42.57;99678.44;4520153;28;20051;-64
2023/07/15 02:05:09;;;;;;;1.00;0.90;;;;;;;24.20;42.99;99685.44;4506456;28;20058;-64
2023/07/15 02:07:20;;;;;;;1.05;0.90;;;;;;;24.21;42.70;99689.16;4517438;28;20040;-64
2023/07/15 02:09:32;;;;;;;0.85;0.80;;;;;;;24.18;41.47;99682.13;4519614;28;20041;-64
2023/07/15 02:11:43;;;;;;;0.75;0.75;;;;;;;24.18;42.08;99678.44;4515510;28;20049;-63
2023/07/15 02:13:53;;;;;;;0.73;0.73;;;;;;;24.17;42.54;99679.66;4517088;28;20022;-64
2023/07/15 02:16:04;;;;;;;1.40;0.90;;;;;;;24.19;42.93;99683.78;4507704;28;20030;-63
2023/07/15 02:18:15;;;;;;;0.75;0.73;;;;;;;24.17;42.18;99680.50;4516509;28;20063;-64
2023/07/15 02:20:27;;;;;;;1.23;0.93;;;;;;;24.19;42.55;99675.16;4517449;28;20040;-63
2023/07/15 02:22:41;;;;;;;0.80;0.80;;;;;;;24.19;42.07;99672.25;4519588;28;20499;-64
2023/07/15 02:24:51;;;;;;;0.70;0.70;;;;;;;24.20;42.54;99673.06;4516720;28;20583;-64
2023/07/15 02:27:03;;;;;;;0.77;0.77;;;;;;;24.17;42.22;99665.25;4517235;28;20066;-64
2023/07/15 02:29:13;;;;;;;0.70;0.70;;;;;;;24.13;42.55;99659.50;4516061;28;20580;-64
2023/07/15 02:31:24;;;;;;;0.70;0.70;;;;;;;24.16;42.46;99667.31;4517687;28;20057;-64
2023/07/15 02:33:34;;;;;;;0.65;0.65;;;;;;;24.19;41.99;99678.03;4517781;28;20036;-64
2023/07/15 02:35:45;;;;;;;1.05;0.82;;;;;;;24.18;41.91;99666.91;4517437;28;20592;-64
2023/07/15 02:37:56;;;;;;;0.82;0.82;;;;;;;24.18;41.58;99666.91;4518636;28;20041;-64
2023/07/15 02:40:09;;;;;;;0.75;0.75;;;;;;;24.15;41.60;99668.53;4519266;28;20022;-65
2023/07/15 02:42:20;;;;;;;0.70;0.70;;;;;;;24.15;41.57;99665.66;4517765;28;20080;-64
2023/07/15 02:44:30;;;;;;;0.95;0.82;;;;;;;24.17;41.62;99668.97;4519407;28;20037;-64
2023/07/15 02:46:41;;;;;;;0.73;0.65;;;;;;;24.06;41.39;99641.38;4518819;28;20345;-64
2023/07/15 02:48:51;;;;;;;0.70;0.57;;;;;;;24.18;41.69;99664.81;4517651;28;20049;-64
2023/07/15 02:51:01;;;;;;;0.70;0.70;;;;;;;24.19;41.74;99662.78;4517221;28;20048;-64
2023/07/15 02:53:12;;;;;;;0.70;0.70;;;;;;;24.17;41.47;99668.13;4518981;28;20092;-64
2023/07/15 02:55:22;;;;;;;0.80;0.68;;;;;;;24.15;41.26;99659.09;4519056;28;20037;-64
2023/07/15 02:57:34;;;;;;;0.75;0.75;;;;;;;24.11;41.20;99649.59;4518993;28;20040;-64
2023/07/15 02:59:44;;;;;;;1.50;0.70;;;;;;;24.18;41.57;99664.81;4518275;28;20044;-64
2023/07/15 03:01:54;;;;;;;0.60;0.60;;;;;;;24.15;41.75;99659.91;4519193;28;20722;-64
2023/07/15 03:04:05;;;;;;;0.73;0.70;;;;;;;24.18;41.45;99650.41;4519346;28;20065;-64
2023/07/15 03:06:16;;;;;;;0.80;0.80;;;;;;;24.14;41.71;99643.00;4517564;28;20026;-64
2023/07/15 03:08:27;;;;;;;0.50;0.50;;;;;;;24.15;42.24;99648.34;4518241;28;20049;-65
2023/07/15 03:10:37;;;;;;;1.05;0.70;;;;;;;24.15;41.74;99654.13;4516722;28;20110;-65
2023/07/15 03:12:48;;;;;;;0.95;0.60;;;;;;;24.11;41.66;99643.84;4524126;28;20026;-64
2023/07/15 03:14:59;;;;;;;0.80;0.70;;;;;;;24.14;41.79;99655.38;4517848;28;20033;-64
2023/07/15 03:17:10;;;;;;;0.68;0.68;;;;;;;24.14;42.08;99646.72;4519181;28;20560;-64
2023/07/15 03:19:21;;;;;;;0.63;0.60;;;;;;;24.17;41.07;99651.66;4518885;28;20029;-64
2023/07/15 03:21:31;;;;;;;1.02;0.80;;;;;;;24.15;41.40;99650.44;4518941;28;20354;-64
2023/07/15 03:23:41;;;;;;;1.23;0.60;;;;;;;24.11;41.00;99640.97;4516979;28;20068;-64
2023/07/15 03:25:53;;;;;;;1.42;0.80;;;;;;;24.10;41.14;99645.88;4518707;28;20256;-64
2023/07/15 03:28:06;;;;;;;0.70;0.70;;;;;;;24.13;41.36;99652.91;4517324;28;20061;-64
2023/07/15 03:30:17;;;;;;;0.70;0.70;;;;;;;24.13;41.34;99653.75;4518501;28;20053;-64
2023/07/15 03:32:27;;;;;;;0.80;0.70;;;;;;;24.15;41.51;99645.47;4515218;28;20861;-64
2023/07/15 03:34:38;;;;;;;0.90;0.60;;;;;;;24.10;41.38;99639.31;4516878;28;20022;-64
2023/07/15 03:36:52;;;;;;;0.60;0.60;;;;;;;24.14;41.73;99643.84;4515666;28;20600;-64
2023/07/15 03:39:03;;;;;;;0.70;0.70;;;;;;;24.13;41.66;99645.09;4515430;28;20104;-64
2023/07/15 03:41:13;;;;;;;0.70;0.70;;;;;;;24.13;41.81;99655.78;4513334;28;20083;-64
2023/07/15 03:43:24;;;;;;;0.82;0.60;;;;;;;24.13;41.51;99655.78;4512622;28;20196;-63
2023/07/15 03:45:34;;;;;;;0.70;0.70;;;;;;;24.15;41.10;99653.31;4516897;28;20037;-64
2023/07/15 03:47:44;;;;;;;0.98;0.60;;;;;;;24.11;41.20;99644.69;4515752;28;20081;-64
2023/07/15 03:49:55;;;;;;;0.70;0.70;;;;;;;24.09;40.84;99644.25;4515068;28;20498;-64
2023/07/15 03:52:06;;;;;;;0.80;0.70;;;;;;;24.12;40.53;99648.38;4517470;28;20033;-64
2023/07/15 03:54:16;;;;;;;0.57;0.57;;;;;;;24.13;40.31;99650.84;4517168;28;20032;-63
2023/07/15 03:56:27;;;;;;;0.70;0.70;;;;;;;24.14;40.74;99646.72;4517649;28;20034;-64
2023/07/15 03:58:37;;;;;;;1.08;0.70;;;;;;;24.13;40.58;99650.84;4514763;28;20041;-64
2023/07/15 04:00:48;;;;;;;0.63;0.63;;;;;;;24.14;41.12;99645.88;4516705;28;20061;-64
2023/07/15 04:03:00;;;;;;;0.57;0.57;;;;;;;24.14;41.12;99649.59;4517590;28;20120;-63
2023/07/15 04:05:11;;;;;;;0.80;0.70;;;;;;;24.13;40.76;99639.31;4517158;28;20034;-64
2023/07/15 04:07:22;;;;;;;0.60;0.60;;;;;;;24.10;41.66;99645.88;4518082;28;20112;-66
2023/07/15 04:09:32;;;;;;;0.73;0.70;;;;;;;24.14;41.43;99640.97;4516591;28;20076;-64
2023/07/15 04:11:43;;;;;;;0.90;0.65;;;;;;;24.11;41.57;99638.06;4517167;28;20057;-64
2023/07/15 04:13:53;;;;;;;0.60;0.60;;;;;;;24.11;41.45;99641.78;4515880;28;20048;-65
2023/07/15 04:16:05;;;;;;;1.00;0.60;;;;;;;24.12;41.45;99631.88;4506551;28;20030;-65
2023/07/15 04:18:16;;;;;;;0.80;0.70;;;;;;;24.14;41.35;99649.59;4516240;28;20037;-65
2023/07/15 04:20:27;;;;;;;1.38;0.70;;;;;;;24.14;42.06;99640.97;4515747;28;20084;-64
2023/07/15 04:22:37;;;;;;;0.73;0.50;;;;;;;24.09;41.54;99643.44;4516631;28;20140;-64
2023/07/15 04:24:48;;;;;;;0.95;0.70;;;;;;;24.13;41.59;99644.25;4516650;28;20034;-64
2023/07/15 04:26:58;;;;;;;1.00;0.80;;;;;;;24.10;41.97;99647.97;4515909;28;20041;-64
2023/07/15 04:29:10;;;;;;;0.60;0.60;;;;;;;24.11;41.54;99638.91;4516076;28;20116;-64
2023/07/15 04:31:20;;;;;;;0.50;0.45;;;;;;;24.04;41.50;99638.91;4516238;28;20128;-64
2023/07/15 04:33:31;;;;;;;0.70;0.70;;;;;;;24.00;41.60;99623.69;4515451;28;20446;-64
2023/07/15 04:35:41;;;;;;;0.98;0.60;;;;;;;24.07;41.56;99638.06;4517125;28;20045;-64
2023/07/15 04:37:52;;;;;;;0.47;0.47;;;;;;;24.11;41.73;99644.69;4516239;28;20034;-64
2023/07/15 04:40:04;;;;;;;0.70;0.70;;;;;;;24.09;42.23;99643.44;4515171;28;20115;-64
2023/07/15 04:42:14;;;;;;;0.60;0.60;;;;;;;24.12;42.52;99648.38;4517037;28;20475;-64
2023/07/15 04:44:25;;;;;;;0.60;0.60;;;;;;;24.14;42.29;99646.72;4517202;28;20038;-64
2023/07/15 04:46:36;;;;;;;0.52;0.50;;;;;;;24.15;41.88;99648.34;4516818;28;20044;-63
2023/07/15 04:48:47;;;;;;;0.60;0.60;;;;;;;24.13;42.52;99645.09;4517181;28;20038;-64
2023/07/15 04:50:57;;;;;;;0.50;0.50;;;;;;;24.12;42.71;99649.19;4518163;28;20037;-64
2023/07/15 04:53:08;;;;;;;0.30;0.30;;;;;;;24.28;48.68;99645.88;4517133;28;20146;-63
2023/07/15 04:55:18;;;;;;;0.30;0.30;;;;;;;24.38;48.78;99647.91;4517405;28;20112;-64
2023/07/15 04:57:28;;;;;;;0.32;0.32;;;;;;;24.39;48.54;99641.72;4515841;28;20041;-63
2023/07/15 04:59:39;;;;;;;0.32;0.32;;;;;;;24.45;48.45;99651.59;4516936;28;20034;-64
2023/07/15 05:01:49;;;;;;;0.22;0.22;;;;;;;24.40;48.60;99631.03;4517041;28;20040;-64
2023/07/15 05:04:01;;;;;;;0.20;0.20;;;;;;;24.49;48.55;99640.88;4517638;28;20044;-65
2023/07/15 05:06:11;;;;;;;0.30;0.30;;;;;;;24.53;48.55;99643.75;4517194;28;20029;-64
2023/07/15 05:08:22;;;;;;;0.20;0.20;;;;;;;24.46;48.19;99635.13;4517419;28;20046;-64
2023/07/15 05:10:33;;;;;;;0.40;0.40;;;;;;;24.51;48.23;99643.34;4516740;28;20405;-64
2023/07/15 05:12:43;;;;;;;0.40;0.40;;;;;;;24.48;47.94;99635.53;4517452;28;20071;-64
2023/07/15 05:14:53;;;;;;;0.63;0.40;;;;;;;24.57;48.00;99647.44;4517375;28;20042;-65
2023/07/15 05:17:06;;;;;;;0.35;0.35;;;;;;;24.59;47.56;99647.84;4518032;28;20025;-65
2023/07/15 05:19:16;;;;;;;0.40;0.40;;;;;;;24.56;47.43;99648.69;4516452;28;20350;-64
2023/07/15 05:21:27;;;;;;;0.40;0.40;;;;;;;24.56;47.78;99646.59;4517260;28;20030;-64
2023/07/15 05:23:37;;;;;;;0.40;0.40;;;;;;;24.57;47.65;99648.28;4506647;28;20042;-65
2023/07/15 05:25:49;;;;;;;0.50;0.50;;;;;;;24.61;47.66;99656.94;4518303;28;20592;-64
2023/07/15 05:27:59;;;;;;;0.22;0.22;;;;;;;24.60;48.00;99647.44;4516542;28;20433;-65
2023/07/15 05:30:10;;;;;;;0.30;0.30;;;;;;;24.59;47.78;99657.31;4516255;28;20084;-64
2023/07/15 05:32:20;;;;;;;0.30;0.30;;;;;;;24.57;48.01;99659.81;4505759;28;20041;-65
2023/07/15 05:34:31;;;;;;;0.40;0.32;;;;;;;24.55;47.70;99641.25;4515063;28;20120;-64
2023/07/15 05:36:41;;;;;;;0.30;0.30;;;;;;;24.59;48.12;99657.31;4517560;28;20276;-64
2023/07/15 05:38:52;;;;;;;0.38;0.30;;;;;;;24.62;47.61;99653.63;4517215;28;20044;-64
2023/07/15 05:41:02;;;;;;;0.30;0.30;;;;;;;24.62;48.18;99656.50;4516440;28;20080;-65
2023/07/15 05:43:13;;;;;;;0.20;0.20;;;;;;;24.63;47.70;99657.31;4516433;28;20120;-64
2023/07/15 05:45:23;;;;;;;0.30;0.30;;;;;;;24.63;47.80;99654.41;4516433;28;20061;-64
2023/07/15 05:47:34;;;;;;;0.30;0.30;;;;;;;24.59;47.75;99645.78;4516554;28;20679;-64
2023/07/15 05:49:44;;;;;;;0.47;0.30;;;;;;;24.63;48.16;99658.13;4519270;28;20814;-64
2023/07/15 05:51:55;;;;;;;0.47;0.20;;;;;;;24.60;48.15;99652.38;4518889;28;20038;-64
2023/07/15 05:54:05;;;;;;;0.40;0.40;;;;;;;24.63;47.72;99663.91;4520139;28;20504;-64
2023/07/15 05:56:15;;;;;;;0.30;0.30;;;;;;;24.61;47.66;99663.50;4520122;28;20136;-64
2023/07/15 05:58:26;;;;;;;0.30;0.30;;;;;;;24.65;48.34;99660.59;4517797;28;20065;-64
2023/07/15 06:00:40;;;;;;;0.30;0.30;;;;;;;24.56;47.87;99646.59;4500622;28;20097;-64
2023/07/15 06:02:50;;;;;;;0.30;0.30;;;;;;;24.63;47.60;99655.25;4518716;28;20041;-65
2023/07/15 06:05:01;;;;;;;0.50;0.50;;;;;;;24.66;47.42;99654.44;4518128;28;20046;-65
2023/07/15 06:07:11;;;;;;;0.15;0.15;;;;;;;24.67;47.50;99656.09;4516325;28;20041;-64
2023/07/15 06:09:22;;;;;;;0.30;0.25;;;;;;;24.66;47.64;99651.56;4519302;28;20052;-64
2023/07/15 06:11:32;;;;;;;0.25;0.25;;;;;;;24.67;47.48;99647.44;4519821;28;20045;-65
2023/07/15 06:13:43;;;;;;;0.30;0.30;;;;;;;24.69;47.53;99653.63;4518868;28;20806;-65
2023/07/15 06:15:53;;;;;;;0.25;0.25;;;;;;;24.71;47.37;99642.47;4520041;28;20048;-64
2023/07/15 06:18:04;;;;;;;0.28;0.28;;;;;;;24.67;47.58;99641.66;4520089;28;20033;-64
2023/07/15 06:20:14;;;;;;;0.20;0.20;;;;;;;24.69;47.53;99627.63;4518939;28;20042;-64
2023/07/15 06:22:25;;;;;;;0.20;0.20;;;;;;;24.70;47.55;99634.25;4519208;28;20524;-65
2023/07/15 06:24:35;;;;;;;0.30;0.30;;;;;;;24.67;47.72;99635.88;4519061;28;20493;-65
2023/07/15 06:26:46;;;;;;;0.20;0.20;;;;;;;24.66;47.54;99640.03;4519387;28;21246;-65
2023/07/15 06:28:56;;;;;;;0.45;0.45;;;;;;;24.71;47.58;99644.53;4518542;28;20655;-64
2023/07/15 06:31:06;;;;;;;0.20;0.20;;;;;;;24.72;47.63;99649.09;4517930;28;20124;-64
2023/07/15 06:33:17;;;;;;;0.20;0.20;;;;;;;24.72;47.60;99644.13;4494838;28;20041;-65
2023/07/15 06:35:27;;;;;;;0.30;0.30;;;;;;;24.72;47.54;99641.22;4517458;28;20026;-64
2023/07/15 06:37:38;;;;;;;0.20;0.20;;;;;;;24.69;47.58;99627.63;4517799;28;20053;-64
2023/07/15 06:39:48;;;;;;;0.22;0.22;;;;;;;24.71;47.57;99636.72;4519131;28;20769;-65
2023/07/15 06:41:59;;;;;;;0.28;0.28;;;;;;;24.70;47.59;99622.69;4519696;28;20061;-64
2023/07/15 06:44:10;;;;;;;0.22;0.22;;;;;;;24.68;47.63;99614.47;4518526;28;20021;-64
2023/07/15 06:46:20;;;;;;;0.20;0.20;;;;;;;24.71;48.06;99619.38;4519665;28;20496;-64
2023/07/15 06:48:31;;;;;;;0.22;0.22;;;;;;;24.69;47.63;99627.63;4519589;28;20643;-64
2023/07/15 06:50:41;;;;;;;0.30;0.28;;;;;;;24.65;47.27;99629.69;4519036;28;20061;-64
2023/07/15 06:52:51;;;;;;;0.30;0.30;;;;;;;24.62;47.16;99632.59;4517760;28;20068;-64
2023/07/15 06:55:02;;;;;;;0.20;0.20;;;;;;;24.64;47.21;99630.91;4518538;28;20535;-64
2023/07/15 06:57:12;;;;;;;0.20;0.20;;;;;;;24.64;47.44;99633.81;4514423;28;20099;-64
2023/07/15 06:59:23;;;;;;;0.20;0.20;;;;;;;24.66;47.40;99625.59;4518013;28;20129;-64
2023/07/15 07:01:33;;;;;;;0.57;0.38;;;;;;;24.65;48.06;99620.22;4518274;28;20041;-65
2023/07/15 07:03:45;;;;;;;0.20;0.20;;;;;;;24.67;47.54;99615.69;4518396;28;20038;-64
2023/07/15 07:05:55;;;;;;;0.25;0.25;;;;;;;24.58;47.42;99602.91;4518116;28;20614;-65
2023/07/15 07:08:05;;;;;;;0.20;0.20;;;;;;;24.69;47.48;99624.75;4517790;28;20057;-64
2023/07/15 07:10:16;;;;;;;0.20;0.20;;;;;;;24.68;47.40;99626.00;4518524;28;20065;-64
2023/07/15 07:12:27;;;;;;;0.20;0.20;;;;;;;24.64;48.12;99622.25;4516512;28;20037;-64
2023/07/15 07:14:37;;;;;;;0.30;0.30;;;;;;;24.69;47.62;99636.28;4518157;28;20080;-64
2023/07/15 07:16:47;;;;;;;0.20;0.20;;;;;;;24.59;47.83;99619.00;4518817;28;20068;-64
2023/07/15 07:18:58;;;;;;;0.25;0.25;;;;;;;24.71;47.67;99625.16;4517665;28;20580;-64
2023/07/15 07:21:08;;;;;;;0.30;0.30;;;;;;;24.68;47.63;99611.56;4532911;28;20143;-64
2023/07/15 07:23:19;;;;;;;0.30;0.30;;;;;;;24.74;48.04;99630.09;4517051;28;20025;-64
2023/07/15 07:25:29;;;;;;;0.20;0.20;;;;;;;24.70;48.23;99635.06;4516716;28;20061;-64
2023/07/15 07:27:40;;;;;;;0.30;0.30;;;;;;;24.70;48.30;99634.25;4519985;28;20044;-64
2023/07/15 07:29:52;;;;;;;0.22;0.22;;;;;;;24.72;48.54;99637.53;4517879;28;20119;-64
2023/07/15 07:32:03;;;;;;;0.22;0.22;;;;;;;24.74;48.04;99635.03;4516341;28;20044;-64
2023/07/15 07:34:13;;;;;;;0.20;0.20;;;;;;;24.75;47.80;99649.03;4516910;28;20056;-64
2023/07/15 07:36:24;;;;;;;0.30;0.30;;;;;;;24.66;47.82;99631.38;4516957;28;20035;-64
2023/07/15 07:38:35;;;;;;;0.20;0.20;;;;;;;24.74;48.00;99640.81;4517504;28;20061;-64
2023/07/15 07:40:46;;;;;;;0.28;0.28;;;;;;;24.76;48.13;99629.69;4515748;28;20032;-64
2023/07/15 07:42:56;;;;;;;0.20;0.20;;;;;;;24.75;47.97;99614.41;4505160;28;20041;-64
2023/07/15 07:45:14;;;;;;;0.20;0.20;;;;;;;24.76;48.09;99630.50;4516568;28;20038;-64
2023/07/15 07:47:25;;;;;;;0.20;0.20;;;;;;;24.76;48.15;99627.63;4518013;28;20038;-64
2023/07/15 07:49:35;;;;;;;0.25;0.25;;;;;;;24.75;47.96;99628.84;4517464;28;20038;-64
2023/07/15 07:51:46;;;;;;;0.30;0.30;;;;;;;24.77;48.09;99625.53;4518318;28;20609;-64
2023/07/15 07:53:56;;;;;;;0.30;0.30;;;;;;;24.71;47.96;99622.28;4517631;28;20096;-64
2023/07/15 07:56:11;;;;;;;0.25;0.25;;;;;;;24.78;47.90;99628.00;4518677;28;20060;-65
2023/07/15 07:58:21;;;;;;;0.30;0.30;;;;;;;24.75;47.97;99625.97;4517505;28;20065;-64
2023/07/15 08:00:31;;;;;;;0.20;0.20;;;;;;;24.64;47.95;99607.03;4517213;28;20432;-64
2023/07/15 08:02:42;;;;;;;0.30;0.30;;;;;;;24.76;47.92;99626.78;4516090;28;20056;-64
2023/07/15 08:04:52;;;;;;;0.30;0.30;;;;;;;24.80;47.96;99645.72;4514758;28;20041;-65
2023/07/15 08:07:03;;;;;;;0.30;0.30;;;;;;;24.78;48.00;99651.09;4517775;28;20041;-64
2023/07/15 08:09:14;;;;;;;0.30;0.30;;;;;;;24.76;48.03;99653.59;4517222;28;20439;-64
2023/07/15 08:11:25;;;;;;;0.28;0.28;;;;;;;24.77;48.00;99655.22;4516103;28;20040;-64
2023/07/15 08:13:35;;;;;;;0.30;0.30;;;;;;;24.81;47.84;99675.44;4518461;28;20072;-64
2023/07/15 08:15:46;;;;;;;0.30;0.30;;;;;;;24.79;48.12;99672.97;4517919;28;20279;-64
2023/07/15 08:17:56;;;;;;;0.30;0.30;;;;;;;24.77;47.96;99663.88;4516831;28;20036;-64
2023/07/15 08:20:08;;;;;;;0.40;0.40;;;;;;;24.78;48.10;99662.63;4517210;28;20052;-64
2023/07/15 08:22:19;;;;;;;0.30;0.30;;;;;;;24.77;47.91;99669.66;4517766;28;20741;-64
2023/07/15 08:24:29;;;;;;;0.28;0.28;;;;;;;24.79;47.47;99684.50;4517376;28;20152;-64
2023/07/15 08:26:39;;;;;;;0.30;0.30;;;;;;;24.81;47.90;99682.03;4516962;28;20034;-63
2023/07/15 08:28:50;;;;;;;0.30;0.30;;;;;;;24.84;48.03;99684.09;4515652;28;20071;-63
2023/07/15 08:31:01;;;;;;;0.30;0.30;;;;;;;24.82;47.92;99680.78;4516878;28;20561;-65
2023/07/15 08:33:11;;;;;;;0.30;0.30;;;;;;;24.78;47.78;99690.69;4517359;28;20030;-64
2023/07/15 08:35:22;;;;;;;0.30;0.30;;;;;;;24.82;47.82;99694.38;4517354;28;20045;-65
2023/07/15 08:37:33;;;;;;;0.30;0.30;;;;;;;24.70;48.01;99674.66;4517044;28;20037;-64
2023/07/15 08:39:43;;;;;;;0.35;0.30;;;;;;;24.78;48.16;99677.06;4516557;28;20077;-64
2023/07/15 08:41:55;;;;;;;0.30;0.30;;;;;;;24.83;48.13;99685.31;4516644;28;20032;-65
2023/07/15 08:44:06;;;;;;;0.85;0.30;;;;;;;24.81;47.63;99682.03;4516009;28;21836;-65
2023/07/15 08:46:28;;;;;;;0.50;0.50;;;;;;;24.82;48.28;99689.44;4517025;28;20044;-64
2023/07/15 08:48:39;;;;;;;0.40;0.40;;;;;;;24.76;47.96;99688.22;4516787;28;20124;-65
2023/07/15 08:50:49;;;;;;;0.40;0.35;;;;;;;24.71;48.06;99691.53;4516252;28;20033;-65
2023/07/15 08:53:01;;;;;;;0.40;0.40;;;;;;;24.85;48.02;99705.09;4519238;28;20041;-65
2023/07/15 08:55:13;;;;;;;0.60;0.40;;;;;;;24.86;47.74;99719.09;4518489;28;20038;-64
2023/07/15 08:57:23;;;;;;;1.02;0.50;;;;;;;24.85;47.95;99717.47;4518430;28;20613;-64
2023/07/15 08:59:34;;;;;;;0.40;0.40;;;;;;;24.86;48.09;99719.09;4516545;28;20038;-64
2023/07/15 09:01:44;;;;;;;0.40;0.32;;;;;;;24.81;47.78;99722.44;4512265;28;20889;-65
2023/07/15 09:03:55;;;;;;;0.73;0.40;;;;;;;24.84;47.96;99727.38;4518498;28;20136;-65
2023/07/15 09:06:05;;;;;;;1.05;0.40;;;;;;;24.84;48.04;99738.94;4519271;28;20040;-65
2023/07/15 09:08:15;;;;;;;0.40;0.40;;;;;;;24.84;48.10;99744.69;4516727;28;20033;-65
2023/07/15 09:10:29;;;;;;;0.30;0.30;;;;;;;24.85;47.97;99755.00;4516833;28;20037;-65
2023/07/15 09:12:44;;;;;;;0.50;0.45;;;;;;;24.83;48.00;99748.81;4514914;28;20026;-65
2023/07/15 09:14:54;;;;;;;0.40;0.40;;;;;;;24.82;48.09;99747.16;4515816;28;20209;-65
2023/07/15 09:17:05;;;;;;;0.38;0.38;;;;;;;24.84;48.02;99755.41;4517560;28;20036;-64
2023/07/15 09:19:18;;;;;;;0.50;0.40;;;;;;;24.85;47.90;99757.88;4516686;28;20073;-65
2023/07/15 09:21:29;;;;;;;0.50;0.50;;;;;;;24.86;47.71;99765.28;4518447;28;20030;-65
2023/07/15 09:23:42;;;;;;;0.40;0.40;;;;;;;24.88;48.02;99774.38;4519299;28;20041;-65
2023/07/15 09:25:54;;;;;;;0.55;0.47;;;;;;;24.89;48.13;99778.88;4520346;28;20148;-65
2023/07/15 09:28:08;;;;;;;0.75;0.52;;;;;;;24.88;48.46;99777.25;4520737;28;20030;-65
2023/07/15 09:30:19;;;;;;;1.00;0.60;;;;;;;24.91;48.48;99801.59;4519788;28;20231;-65
2023/07/15 09:32:31;;;;;;;1.30;0.60;;;;;;;24.87;48.41;99783.44;4508636;28;20041;-65
2023/07/15 09:34:50;;;;;;;0.77;0.50;;;;;;;24.86;48.31;99791.28;4519124;28;20041;-65
2023/07/15 09:37:00;;;;;;;0.60;0.40;;;;;;;24.87;48.40;99813.16;4518847;28;20063;-65
2023/07/15 09:39:17;;;;;;;0.40;0.40;;;;;;;24.90;48.26;99823.03;4519560;28;20037;-65
2023/07/15 09:41:27;;;;;;;0.60;0.50;;;;;;;24.91;48.37;99827.56;4519703;28;21545;-65
2023/07/15 09:43:46;;;;;;;0.68;0.50;;;;;;;24.88;48.12;99819.72;4508410;28;20094;-65
2023/07/15 09:45:56;;;;;;;0.50;0.50;;;;;;;24.89;48.48;99827.97;4519052;28;20653;-66
2023/07/15 09:48:09;;;;;;;0.82;0.47;;;;;;;24.91;48.28;99847.78;4519153;28;20401;-65
2023/07/15 09:50:20;;;;;;;0.50;0.50;;;;;;;24.93;48.47;99869.22;4518782;28;20044;-65
2023/07/15 09:52:31;;;;;;;0.38;0.30;;;;;;;24.89;48.38;99856.84;4518633;28;20075;-65
2023/07/15 09:54:42;;;;;;;1.00;0.50;;;;;;;24.91;48.47;99880.34;4517212;28;20040;-65
2023/07/15 09:57:20;;;;;;;0.90;0.50;;;;;;;24.93;48.58;99886.53;4518997;28;20654;-65
2023/07/15 09:59:48;;;;;;;1.10;0.50;;;;;;;24.88;48.50;99886.94;4516662;28;20634;-65
2023/07/15 10:02:31;;;;;;;0.60;0.40;;;;;;;24.92;48.53;99899.34;4519266;28;20508;-65
2023/07/15 10:04:46;;;;;;;0.40;0.40;;;;;;;24.92;48.38;99913.78;4518335;28;20037;-64
2023/07/15 10:06:57;;;;;;;1.52;0.50;;;;;;;24.94;48.51;99922.03;4518636;28;20711;-63
2023/07/15 10:09:09;;;;;;;1.00;0.60;;;;;;;24.91;48.45;99923.66;4518401;28;20199;-63
2023/07/15 10:11:19;;;;;;;0.50;0.30;;;;;;;24.76;46.88;99910.47;4519187;28;20033;-65
2023/07/15 10:13:30;;;;;;;1.30;0.80;;;;;;;24.59;52.20;99896.81;4518465;28;20580;-64
2023/07/15 10:15:41;;;;;;;0.85;0.73;;;;;;;24.58;54.34;99918.25;4518590;28;20392;-62
2023/07/15 10:17:51;;;;;;;0.98;0.80;;;;;;;24.50;55.96;99918.66;4516194;28;20040;-62
2023/07/15 10:20:17;;;;;;;0.80;0.80;;;;;;;24.50;57.36;99919.47;4518871;28;20045;-62